Time;durP1;ratioP1;P1;durP2;ratioP2;P2;SDS_P1;SDS_P2;PMS_P1;PMS_P2;Temp;Humidity;BMP_temperature;BMP_pressure;BME280_temperature;BME280_humidity;BME280_pressure;Samples;Min_cycle;Max_cycle;Signal;HPM_P1;HPM_P2
2022/11/23 05:02:38;;;;;;;13.47;6.83;;;5.20;99.90;;;;;;4979799;23;20504;-76
2022/11/23 05:05:05;;;;;;;8.20;5.00;;;5.20;99.90;;;;;;4947576;29;20457;-75
2022/11/23 05:07:32;;;;;;;9.93;5.77;;;5.30;99.90;;;;;;4947040;29;20469;-76
2022/11/23 05:09:59;;;;;;;15.47;7.10;;;5.30;99.90;;;;;;4948155;29;20481;-76
2022/11/23 05:12:25;;;;;;;16.50;7.40;;;5.30;99.90;;;;;;4947546;28;20491;-76
2022/11/23 05:14:52;;;;;;;15.73;7.50;;;5.30;99.90;;;;;;4947419;28;21024;-77
2022/11/23 05:17:19;;;;;;;12.07;5.93;;;5.30;99.90;;;;;;4947751;29;20468;-75
2022/11/23 05:19:47;;;;;;;16.10;7.80;;;5.40;99.90;;;;;;4946190;29;20514;-76
2022/11/23 05:22:14;;;;;;;15.93;6.13;;;5.40;99.90;;;;;;4946728;28;20477;-77
2022/11/23 05:24:40;;;;;;;13.50;6.00;;;5.40;99.90;;;;;;4947785;29;20461;-77
2022/11/23 05:27:07;;;;;;;9.80;5.50;;;5.40;99.90;;;;;;4948019;29;20511;-65
2022/11/23 05:29:34;;;;;;;9.43;5.80;;;5.40;99.90;;;;;;4947005;28;20469;-65
2022/11/23 05:32:01;;;;;;;8.50;5.10;;;5.40;99.90;;;;;;4946944;28;20484;-65
2022/11/23 05:34:28;;;;;;;6.80;5.77;;;5.40;99.90;;;;;;4947437;29;20461;-64
2022/11/23 05:36:56;;;;;;;6.67;4.40;;;5.40;99.90;;;;;;4947865;29;20454;-65
2022/11/23 05:39:23;;;;;;;20.27;10.10;;;5.40;99.90;;;;;;4947754;29;20457;-65
2022/11/23 05:41:50;;;;;;;19.13;11.03;;;5.50;99.90;;;;;;4946614;28;20485;-65
2022/11/23 05:44:17;;;;;;;23.10;13.30;;;5.50;99.90;;;;;;4947616;28;20465;-64
2022/11/23 05:46:43;;;;;;;18.60;11.07;;;5.50;99.90;;;;;;4947451;28;20899;-64
2022/11/23 05:49:10;;;;;;;19.27;11.10;;;5.40;99.90;;;;;;4947939;28;20464;-77
2022/11/23 05:51:37;;;;;;;19.53;11.20;;;5.50;99.90;;;;;;4947925;28;20481;-76
2022/11/23 05:54:05;;;;;;;18.23;9.90;;;5.50;99.90;;;;;;4948387;28;20468;-76
2022/11/23 05:56:32;;;;;;;14.80;8.97;;;5.50;99.90;;;;;;4948067;28;21017;-77
2022/11/23 05:58:59;;;;;;;13.97;7.77;;;5.50;99.90;;;;;;4948543;29;20465;-77
2022/11/23 06:01:26;;;;;;;12.07;5.97;;;5.40;99.90;;;;;;4947626;28;20729;-75
2022/11/23 06:03:53;;;;;;;19.70;11.10;;;5.50;99.90;;;;;;4946391;29;20466;-76
2022/11/23 06:06:19;;;;;;;25.30;13.13;;;5.50;99.90;;;;;;4947333;29;20511;-77
2022/11/23 06:08:46;;;;;;;20.50;10.40;;;5.50;99.90;;;;;;4947736;29;20457;-77
2022/11/23 06:11:15;;;;;;;22.37;11.00;;;5.50;99.90;;;;;;4948279;28;20485;-77
2022/11/23 06:13:41;;;;;;;21.33;12.30;;;5.50;99.90;;;;;;4946960;29;20472;-76
2022/11/23 06:16:08;;;;;;;19.83;10.97;;;5.50;99.90;;;;;;4947399;29;20454;-77
2022/11/23 06:18:35;;;;;;;25.63;13.53;;;5.40;99.90;;;;;;4948040;29;20461;-76
2022/11/23 06:21:02;;;;;;;18.20;11.63;;;5.40;99.90;;;;;;4947743;28;20478;-76
2022/11/23 06:23:29;;;;;;;20.23;11.97;;;5.50;99.90;;;;;;4947128;29;20473;-77
2022/11/23 06:25:59;;;;;;;13.30;9.50;;;5.40;99.90;;;;;;4948929;28;20497;-75
2022/11/23 06:28:27;;;;;;;17.00;10.30;;;5.40;99.90;;;;;;4951629;29;20446;-77
2022/11/23 06:30:54;;;;;;;21.07;10.13;;;5.40;99.90;;;;;;4951894;28;20548;-77
2022/11/23 06:33:21;;;;;;;13.73;8.67;;;5.30;99.90;;;;;;4950969;29;20457;-77
2022/11/23 06:35:54;;;;;;;15.17;9.13;;;5.30;99.90;;;;;;4950944;29;20465;-76
2022/11/23 06:38:21;;;;;;;9.77;7.00;;;5.30;99.90;;;;;;4950858;29;20674;-77
2022/11/23 06:40:48;;;;;;;12.73;7.27;;;5.30;99.90;;;;;;4950892;28;20484;-76
2022/11/23 06:43:15;;;;;;;9.30;6.90;;;5.20;99.90;;;;;;4950123;29;20460;-76
2022/11/23 06:45:43;;;;;;;8.30;5.90;;;5.20;99.90;;;;;;4950945;29;20464;-76
2022/11/23 06:48:10;;;;;;;11.73;7.57;;;5.20;99.90;;;;;;4951694;29;20457;-76
2022/11/23 06:50:37;;;;;;;18.83;7.17;;;5.10;99.90;;;;;;4950296;28;20477;-76
2022/11/23 06:53:04;;;;;;;12.10;7.60;;;5.10;99.90;;;;;;4949418;29;20461;-75
2022/11/23 06:55:31;;;;;;;10.30;7.47;;;5.00;99.90;;;;;;4950749;29;20498;-77
2022/11/23 06:57:58;;;;;;;14.20;7.50;;;5.10;99.90;;;;;;4950577;29;20461;-76
2022/11/23 07:00:25;;;;;;;8.53;6.70;;;5.00;99.90;;;;;;4950242;28;20498;-78
2022/11/23 07:02:54;;;;;;;13.93;7.83;;;4.90;99.90;;;;;;4949840;29;21100;-76
2022/11/23 07:05:21;;;;;;;9.67;6.60;;;4.90;99.90;;;;;;4950477;29;20472;-76
2022/11/23 07:07:48;;;;;;;17.13;6.83;;;4.80;99.90;;;;;;4950127;28;20497;-76
2022/11/23 07:10:15;;;;;;;9.77;5.47;;;4.80;99.90;;;;;;4950304;28;20457;-76
2022/11/23 07:12:42;;;;;;;6.00;5.40;;;4.80;99.90;;;;;;4949301;29;20477;-75
2022/11/23 07:15:09;;;;;;;10.43;4.53;;;4.80;99.90;;;;;;4950238;29;20973;-76
2022/11/23 07:17:39;;;;;;;6.53;5.10;;;4.80;99.90;;;;;;4950284;29;20457;-76
2022/11/23 07:20:08;;;;;;;7.63;6.20;;;4.80;99.90;;;;;;4950322;29;20465;-77
2022/11/23 07:22:35;;;;;;;13.30;5.47;;;4.70;99.90;;;;;;4949502;28;20481;-76
2022/11/23 07:25:03;;;;;;;13.77;8.37;;;4.70;99.90;;;;;;4950786;29;20461;-77
2022/11/23 07:27:29;;;;;;;10.57;6.33;;;4.70;99.90;;;;;;4950755;29;21013;-75
2022/11/23 07:29:56;;;;;;;9.20;6.87;;;4.70;99.90;;;;;;4949025;29;20824;-77
2022/11/23 07:32:23;;;;;;;11.13;6.97;;;4.70;99.90;;;;;;4949253;28;20478;-76
2022/11/23 07:34:50;;;;;;;10.30;6.97;;;4.70;99.90;;;;;;4949805;29;20457;-75
2022/11/23 07:37:18;;;;;;;12.77;6.93;;;4.70;99.90;;;;;;4949367;28;20457;-76
2022/11/23 07:39:45;;;;;;;14.83;7.73;;;4.80;99.90;;;;;;4949385;29;20950;-77
2022/11/23 07:42:11;;;;;;;15.67;9.40;;;4.70;99.90;;;;;;4949012;28;20489;-76
2022/11/23 07:44:38;;;;;;;13.80;8.80;;;4.70;99.90;;;;;;4949868;29;20468;-77
2022/11/23 07:47:05;;;;;;;18.43;7.77;;;4.80;99.90;;;;;;4949664;29;20497;-76
2022/11/23 07:49:32;;;;;;;11.83;6.90;;;4.80;99.90;;;;;;4949657;29;20468;-76
2022/11/23 07:51:58;;;;;;;10.73;6.80;;;4.80;99.90;;;;;;4948981;28;20500;-77
2022/11/23 07:54:27;;;;;;;11.67;7.10;;;4.70;99.90;;;;;;4949036;29;20457;-77
2022/11/23 07:56:53;;;;;;;11.20;6.43;;;4.70;99.90;;;;;;4949812;29;20464;-77
2022/11/23 07:59:20;;;;;;;15.30;6.50;;;4.70;99.90;;;;;;4949095;29;20981;-77
2022/11/23 08:01:47;;;;;;;11.53;6.53;;;4.70;99.90;;;;;;4948862;28;20492;-76
2022/11/23 08:04:14;;;;;;;10.40;6.23;;;4.70;99.90;;;;;;4949766;29;20464;-77
2022/11/23 08:06:40;;;;;;;9.03;5.93;;;4.70;99.90;;;;;;4949176;29;20494;-76
2022/11/23 08:09:07;;;;;;;10.97;6.47;;;4.80;99.90;;;;;;4948864;29;20461;-76
2022/11/23 08:11:36;;;;;;;13.60;6.97;;;4.80;99.90;;;;;;4949118;28;20489;-76
2022/11/23 08:14:02;;;;;;;16.03;6.70;;;4.90;99.90;;;;;;4949339;29;20461;-77
2022/11/23 08:16:29;;;;;;;9.67;6.10;;;5.00;99.90;;;;;;4948986;29;20464;-76
2022/11/23 08:18:56;;;;;;;12.83;7.10;;;5.00;99.90;;;;;;4948902;29;20469;-76
2022/11/23 08:21:23;;;;;;;13.40;7.90;;;5.10;99.90;;;;;;4948741;28;21016;-76
2022/11/23 08:23:50;;;;;;;17.20;8.90;;;5.10;99.90;;;;;;4948622;29;20469;-76
2022/11/23 08:26:16;;;;;;;14.30;8.73;;;5.30;99.90;;;;;;4949277;29;20458;-77
2022/11/23 08:28:44;;;;;;;21.20;11.70;;;5.30;99.90;;;;;;4949131;29;20472;-75
2022/11/23 08:31:13;;;;;;;17.07;10.23;;;5.50;99.90;;;;;;4948563;28;20484;-76
2022/11/23 08:33:40;;;;;;;20.67;13.30;;;5.60;99.90;;;;;;4948231;29;20457;-77
2022/11/23 08:36:08;;;;;;;19.20;12.87;;;5.70;99.90;;;;;;4948550;29;20458;-76
2022/11/23 08:38:35;;;;;;;14.63;11.80;;;5.90;99.90;;;;;;4948631;29;20540;-77
2022/11/23 08:41:04;;;;;;;25.93;17.60;;;6.00;99.90;;;;;;4948711;28;20484;-76
2022/11/23 08:43:31;;;;;;;25.87;21.00;;;6.00;99.90;;;;;;4948178;28;20552;-77
2022/11/23 08:46:00;;;;;;;25.87;19.30;;;6.10;99.90;;;;;;4948447;29;20457;-76
2022/11/23 08:48:27;;;;;;;28.23;21.67;;;6.20;99.90;;;;;;4947713;28;20525;-77
2022/11/23 08:50:54;;;;;;;26.70;23.83;;;6.30;99.90;;;;;;4948496;28;20484;-76
2022/11/23 08:53:21;;;;;;;16.60;8.07;;;6.40;99.90;;;;;;4947534;29;20465;-76
2022/11/23 08:55:48;;;;;;;7.27;4.00;;;6.50;99.90;;;;;;4948407;29;20977;-76
2022/11/23 08:58:15;;;;;;;7.07;3.07;;;6.60;99.90;;;;;;4948136;29;20476;-77
2022/11/23 09:00:42;;;;;;;6.70;3.53;;;6.70;99.90;;;;;;4947961;28;20493;-76
2022/11/23 09:03:10;;;;;;;7.30;3.40;;;6.90;99.90;;;;;;4947590;29;20449;-75
2022/11/23 09:05:38;;;;;;;5.47;2.43;;;7.00;99.90;;;;;;4948205;29;20484;-76
2022/11/23 09:08:05;;;;;;;6.57;2.97;;;7.20;99.90;;;;;;4947965;29;21005;-76
2022/11/23 09:10:32;;;;;;;5.67;3.20;;;7.30;99.90;;;;;;4947985;28;20480;-76
2022/11/23 09:12:59;;;;;;;8.40;3.17;;;7.40;99.90;;;;;;4947348;29;20576;-75
2022/11/23 09:15:26;;;;;;;6.80;2.37;;;7.60;99.90;;;;;;4947819;29;20466;-76
2022/11/23 09:17:53;;;;;;;6.70;2.67;;;7.80;99.90;;;;;;4948054;29;20453;-77
2022/11/23 09:20:21;;;;;;;10.07;2.73;;;8.00;99.90;;;;;;4947890;28;21421;-77
2022/11/23 09:22:52;;;;;;;4.33;2.63;;;8.20;99.90;;;;;;4947585;29;20465;-76
2022/11/23 09:25:19;;;;;;;8.40;2.53;;;8.40;99.90;;;;;;4946386;29;20512;-77
2022/11/23 09:27:46;;;;;;;8.80;2.80;;;8.60;99.90;;;;;;4946917;29;20485;-76
2022/11/23 09:30:13;;;;;;;8.73;3.07;;;8.80;99.90;;;;;;4946805;28;20461;-76
2022/11/23 09:32:40;;;;;;;5.23;2.23;;;8.90;99.90;;;;;;4946262;28;20469;-76
2022/11/23 09:35:08;;;;;;;5.20;2.70;;;8.90;99.90;;;;;;4946984;29;20465;-75
2022/11/23 09:37:36;;;;;;;5.97;2.33;;;9.10;99.90;;;;;;4946739;28;20460;-76
2022/11/23 09:40:04;;;;;;;7.50;2.50;;;9.10;99.90;;;;;;4947198;29;20458;-76
2022/11/23 09:42:41;;;;;;;5.27;2.07;;;9.20;99.90;;;;;;4946232;28;20485;-76
2022/11/23 09:45:18;;;;;;;8.03;2.70;;;9.60;99.90;;;;;;4947353;28;20455;-76
2022/11/23 09:48:05;;;;;;;6.43;2.10;;;9.90;99.90;;;;;;4947517;29;20490;-76
2022/11/23 09:50:45;;;;;;;8.47;2.13;;;10.10;99.90;;;;;;4947391;28;20477;-76
2022/11/23 09:53:18;;;;;;;5.20;2.57;;;10.10;99.90;;;;;;4946889;29;20581;-76
2022/11/23 09:55:47;;;;;;;4.03;1.80;;;10.20;99.90;;;;;;4947141;29;20461;-76
2022/11/23 09:58:16;;;;;;;7.40;2.43;;;10.20;99.90;;;;;;4946945;29;20805;-76
2022/11/23 10:00:47;;;;;;;3.57;1.63;;;10.50;99.90;;;;;;4949539;28;20496;-77
2022/11/23 10:03:15;;;;;;;2.93;1.57;;;10.60;99.90;;;;;;4950424;29;20464;-77
2022/11/23 10:05:50;;;;;;;8.40;2.50;;;10.50;99.90;;;;;;4950908;29;20461;-76
2022/11/23 10:11:48;;;;;;;7.73;1.90;;;10.60;99.90;;;;;;4948821;28;20469;-76
2022/11/23 10:14:42;;;;;;;4.83;2.10;;;10.60;99.90;;;;;;4951147;29;20453;-77
2022/11/23 10:17:18;;;;;;;6.00;2.20;;;10.70;99.90;;;;;;4951164;29;20532;-76
2022/11/23 10:20:01;;;;;;;5.13;1.77;;;10.90;99.90;;;;;;4951047;29;21095;-76
2022/11/23 10:22:35;;;;;;;3.13;1.90;;;11.00;99.90;;;;;;4950266;28;20502;-77
2022/11/23 10:25:14;;;;;;;3.03;1.60;;;11.10;99.90;;;;;;4951293;29;20475;-77
2022/11/23 10:27:41;;;;;;;6.37;1.93;;;11.30;99.90;;;;;;4951352;29;20501;-77
2022/11/23 10:30:12;;;;;;;6.43;2.53;;;11.50;99.90;;;;;;4950046;29;20460;-76
2022/11/23 10:32:45;;;;;;;8.37;1.90;;;11.40;99.90;;;;;;4950755;28;20441;-76
2022/11/23 10:35:13;;;;;;;3.67;1.73;;;11.60;99.90;;;;;;4950874;28;20468;-76
2022/11/23 10:37:41;;;;;;;8.80;1.97;;;11.80;99.90;;;;;;4950944;29;20465;-77
2022/11/23 10:40:16;;;;;;;9.03;2.73;;;11.90;99.90;;;;;;4951114;29;20464;-77
2022/11/23 10:42:46;;;;;;;4.70;2.20;;;12.00;99.90;;;;;;4950385;29;20496;-77
2022/11/23 10:45:20;;;;;;;4.87;1.67;;;12.50;99.90;;;;;;4951428;29;20509;-76
2022/11/23 10:47:51;;;;;;;3.90;1.87;;;12.70;99.90;;;;;;4951763;29;20500;-77
2022/11/23 10:50:28;;;;;;;2.87;1.80;;;13.00;99.90;;;;;;4951584;28;20485;-77
2022/11/23 10:52:57;;;;;;;6.57;2.30;;;13.10;99.90;;;;;;4951109;29;20969;-77
2022/11/23 10:55:31;;;;;;;7.83;2.10;;;13.00;99.90;;;;;;4951220;29;20548;-77
2022/11/23 10:57:58;;;;;;;4.70;1.80;;;13.00;99.90;;;;;;4951031;29;20461;-77
2022/11/23 11:00:27;;;;;;;4.27;2.00;;;13.20;99.90;;;;;;4951255;28;20464;-77
2022/11/23 11:02:55;;;;;;;4.77;1.97;;;13.30;99.90;;;;;;4950743;29;20950;-77
2022/11/23 11:05:30;;;;;;;4.27;2.10;;;13.60;99.90;;;;;;4951601;29;20549;-77
2022/11/23 11:07:58;;;;;;;3.90;2.00;;;13.70;99.90;;;;;;4951331;29;20492;-76
2022/11/23 11:10:37;;;;;;;5.60;2.57;;;13.90;99.90;;;;;;4951782;28;20961;-77
2022/11/23 11:13:22;;;;;;;7.43;1.97;;;13.90;99.90;;;;;;4950629;29;20452;-77
2022/11/23 11:15:55;;;;;;;3.60;2.13;;;14.10;99.90;;;;;;4952077;29;20460;-77
2022/11/23 11:18:27;;;;;;;6.80;2.00;;;14.00;99.90;;;;;;4951392;29;20438;-76
2022/11/23 11:21:01;;;;;;;2.97;1.70;;;14.10;99.90;;;;;;4951841;28;20489;-77
2022/11/23 11:23:30;;;;;;;5.50;1.90;;;14.00;99.90;;;;;;4950892;29;20981;-77
2022/11/23 11:26:13;;;;;;;5.23;1.97;;;14.00;99.90;;;;;;4951795;29;20512;-77
2022/11/23 11:28:42;;;;;;;4.83;1.73;;;14.30;99.90;;;;;;4951598;29;20512;-78
2022/11/23 11:31:37;;;;;;;6.90;2.27;;;14.60;99.90;;;;;;4950557;28;20485;-78
2022/11/23 11:34:13;;;;;;;5.97;2.07;;;14.60;99.90;;;;;;4951931;29;20458;-77
2022/11/23 11:36:46;;;;;;;4.73;1.73;;;14.70;99.90;;;;;;4952166;29;20546;-77
2022/11/23 11:39:17;;;;;;;4.40;2.00;;;14.80;99.90;;;;;;4951946;29;20458;-78
2022/11/23 11:41:48;;;;;;;5.40;1.90;;;14.90;99.90;;;;;;4952753;28;20485;-78
2022/11/23 11:44:21;;;;;;;5.40;1.70;;;15.00;99.90;;;;;;4953051;29;20449;-77
2022/11/23 11:46:53;;;;;;;4.40;1.83;;;15.00;99.90;;;;;;4953157;29;20448;-78
2022/11/23 11:49:24;;;;;;;3.30;1.20;;;15.10;99.90;;;;;;4953052;29;20908;-78
2022/11/23 11:51:56;;;;;;;5.93;1.77;;;15.30;99.90;;;;;;4952015;28;20576;-78
2022/11/23 11:54:29;;;;;;;4.17;1.87;;;15.30;99.90;;;;;;4954751;29;20827;-77
2022/11/23 11:57:03;;;;;;;5.97;2.00;;;15.30;99.90;;;;;;4955686;29;20546;-78
2022/11/23 11:59:41;;;;;;;3.03;1.30;;;15.60;99.90;;;;;;4954071;29;20461;-78
2022/11/23 12:02:19;;;;;;;3.10;1.50;;;15.70;99.90;;;;;;4951268;28;20489;-78
2022/11/23 12:04:55;;;;;;;5.43;1.70;;;15.90;99.90;;;;;;4952886;29;20452;-78
2022/11/23 12:07:28;;;;;;;4.47;1.90;;;15.90;99.90;;;;;;4950852;29;20993;-77
2022/11/23 12:10:01;;;;;;;4.60;1.73;;;15.90;99.90;;;;;;4951390;29;20517;-77
2022/11/23 12:12:31;;;;;;;5.50;1.40;;;15.80;99.90;;;;;;4952203;28;20481;-78
2022/11/23 12:14:58;;;;;;;2.60;1.33;;;15.90;99.90;;;;;;4953756;29;20461;-78
2022/11/23 12:17:43;;;;;;;3.00;1.60;;;16.00;99.90;;;;;;4952863;29;20465;-77
2022/11/23 12:20:20;;;;;;;3.87;1.70;;;16.00;99.90;;;;;;4952950;28;20457;-79
2022/11/23 12:22:59;;;;;;;3.57;1.30;;;16.00;99.90;;;;;;4951669;28;20464;-78
2022/11/23 12:25:33;;;;;;;3.10;1.20;;;15.90;99.90;;;;;;4951196;28;20457;-77
2022/11/23 12:28:16;;;;;;;3.57;1.53;;;16.00;99.90;;;;;;4948708;29;20517;-78
2022/11/23 12:30:51;;;;;;;5.63;1.70;;;16.10;99.90;;;;;;4948955;28;20489;-77
2022/11/23 12:33:34;;;;;;;3.10;1.60;;;16.00;99.90;;;;;;4948263;29;20544;-79
2022/11/23 12:36:16;;;;;;;5.57;1.80;;;15.90;99.90;;;;;;4949862;29;20445;-77
2022/11/23 12:38:54;;;;;;;7.23;1.87;;;15.80;99.90;;;;;;4949615;29;20457;-77
2022/11/23 12:41:29;;;;;;;2.60;1.37;;;15.70;99.90;;;;;;4949730;28;20489;-79
2022/11/23 12:44:12;;;;;;;1.73;1.03;;;15.70;99.90;;;;;;4948885;28;21286;-79
2022/11/23 12:46:45;;;;;;;5.67;1.43;;;15.70;99.90;;;;;;4950356;28;20441;-78
2022/11/23 12:49:26;;;;;;;4.10;1.53;;;15.50;99.90;;;;;;4949910;29;20480;-78
2022/11/23 12:52:00;;;;;;;4.47;1.43;;;15.40;99.90;;;;;;4948656;28;20473;-78
2022/11/23 12:54:45;;;;;;;1.90;1.20;;;15.40;99.90;;;;;;4949604;29;20508;-79
2022/11/23 12:57:16;;;;;;;3.17;1.60;;;15.30;99.90;;;;;;4949999;29;20461;-78
2022/11/23 12:59:48;;;;;;;5.50;1.57;;;15.20;99.90;;;;;;4946746;29;20446;-77
2022/11/23 13:03:03;;;;;;;2.50;1.60;;;15.20;99.90;;;;;;4946657;28;20508;-78
2022/11/23 13:05:59;;;;;;;3.50;1.47;;;15.00;99.90;;;;;;4947788;29;21106;-77
2022/11/23 13:08:59;;;;;;;3.60;1.67;;;15.00;99.90;;;;;;4938017;28;20496;-77
2022/11/23 13:11:38;;;;;;;2.20;1.20;;;15.00;99.90;;;;;;4915876;28;20477;-77
2022/11/23 13:14:20;;;;;;;2.67;1.47;;;14.60;99.90;;;;;;4947543;29;20441;-78
2022/11/23 13:17:04;;;;;;;4.90;1.80;;;14.50;99.90;;;;;;4947749;29;20444;-78
2022/11/23 13:19:48;;;;;;;3.63;1.50;;;14.40;99.90;;;;;;4947271;29;20429;-77
2022/11/23 13:22:19;;;;;;;3.33;1.80;;;14.30;99.90;;;;;;4946429;28;20481;-77
2022/11/23 13:25:02;;;;;;;2.70;1.50;;;14.20;99.90;;;;;;4946954;29;20457;-77
2022/11/23 13:27:43;;;;;;;3.13;1.37;;;14.20;99.90;;;;;;4946842;29;20551;-78
2022/11/23 13:30:23;;;;;;;1.90;1.20;;;14.10;99.90;;;;;;4947547;29;20453;-77
2022/11/23 13:32:58;;;;;;;2.80;1.30;;;14.00;99.90;;;;;;4946708;29;20445;-78
2022/11/23 13:35:52;;;;;;;2.77;1.07;;;13.90;99.90;;;;;;4946283;28;20966;-77
2022/11/23 13:38:25;;;;;;;1.00;0.80;;;13.70;99.90;;;;;;4942171;28;20472;-77
2022/11/23 13:40:52;;;;;;;2.60;1.03;;;13.60;99.90;;;;;;4947459;28;20481;-80
2022/11/23 13:43:22;;;;;;;4.80;1.17;;;13.60;99.90;;;;;;4947344;29;20476;-77
2022/11/23 13:46:19;;;;;;;2.97;1.53;;;13.50;99.90;;;;;;4947653;28;20548;-78
2022/11/23 13:48:49;;;;;;;1.27;1.00;;;13.50;99.90;;;;;;4947927;28;20503;-78
2022/11/23 13:51:23;;;;;;;2.20;1.40;;;13.40;99.90;;;;;;4947599;28;20540;-78
2022/11/23 13:53:54;;;;;;;5.50;1.30;;;13.40;99.90;;;;;;4946804;29;20933;-65
2022/11/23 13:56:32;;;;;;;2.33;1.40;;;13.30;99.90;;;;;;4947711;29;20445;-66
2022/11/23 13:59:20;;;;;;;2.93;0.97;;;13.20;99.90;;;;;;4947352;29;20487;-65
2022/11/23 14:02:25;;;;;;;2.60;1.00;;;13.20;99.90;;;;;;4947467;28;20503;-77
2022/11/23 14:05:17;;;;;;;2.43;1.20;;;13.00;99.90;;;;;;4948437;28;20541;-77
2022/11/23 14:07:45;;;;;;;2.73;1.20;;;13.00;99.90;;;;;;4948336;29;20472;-78
2022/11/23 14:10:19;;;;;;;2.17;1.33;;;12.90;99.90;;;;;;4948410;29;20589;-76
2022/11/23 14:12:50;;;;;;;2.33;1.17;;;12.90;99.90;;;;;;4947096;28;20911;-76
2022/11/23 14:15:19;;;;;;;2.10;1.27;;;12.80;99.90;;;;;;4947731;29;20461;-77
2022/11/23 14:18:24;;;;;;;1.90;1.00;;;12.70;99.90;;;;;;4948004;29;20462;-77
2022/11/23 14:21:00;;;;;;;2.20;1.10;;;12.60;99.90;;;;;;4947829;28;20484;-77
2022/11/23 14:24:06;;;;;;;2.87;1.20;;;12.70;99.90;;;;;;4947611;29;20802;-77
2022/11/23 14:26:42;;;;;;;2.70;1.30;;;12.60;99.90;;;;;;4948074;29;20837;-77
2022/11/23 14:29:26;;;;;;;2.13;1.10;;;12.50;99.90;;;;;;4948279;29;20492;-76
2022/11/23 14:32:22;;;;;;;3.30;1.20;;;12.40;99.90;;;;;;4947734;28;20492;-77
2022/11/23 14:35:00;;;;;;;2.27;1.27;;;12.30;99.90;;;;;;4943469;28;20601;-76
2022/11/23 14:37:36;;;;;;;1.70;1.00;;;12.30;99.90;;;;;;4947934;29;20471;-76
2022/11/23 14:40:17;;;;;;;2.23;1.27;;;12.30;99.90;;;;;;4948034;29;20453;-77
2022/11/23 14:42:54;;;;;;;4.13;1.37;;;12.40;99.90;;;;;;4946778;29;20461;-78
2022/11/23 14:45:23;;;;;;;4.63;1.07;;;12.30;99.90;;;;;;4948139;29;20479;-76
2022/11/23 14:47:50;;;;;;;1.63;1.20;;;12.30;99.90;;;;;;4948296;29;20464;-77
2022/11/23 14:50:25;;;;;;;1.10;1.00;;;12.30;99.90;;;;;;4950487;28;20465;-76
2022/11/23 14:52:55;;;;;;;4.67;1.60;;;12.30;99.90;;;;;;4951168;29;20465;-77
2022/11/23 14:55:25;;;;;;;1.87;1.23;;;12.20;99.90;;;;;;4952041;28;20469;-75
2022/11/23 14:57:57;;;;;;;2.00;1.17;;;12.10;99.90;;;;;;4952259;29;20473;-76
2022/11/23 15:00:29;;;;;;;2.30;1.30;;;12.10;99.90;;;;;;4952025;28;20822;-76
2022/11/23 15:02:59;;;;;;;3.30;1.30;;;12.10;99.90;;;;;;4951186;29;20973;-79
2022/11/23 15:05:29;;;;;;;1.90;1.13;;;12.10;99.90;;;;;;4951750;29;20462;-78
2022/11/23 15:08:01;;;;;;;1.83;1.43;;;12.00;99.90;;;;;;4951536;29;20965;-79
2022/11/23 15:10:38;;;;;;;2.73;1.50;;;12.00;99.90;;;;;;4951319;28;20445;-76
2022/11/23 15:13:21;;;;;;;5.10;1.30;;;12.00;99.90;;;;;;4951266;29;20437;-76
2022/11/23 15:15:52;;;;;;;6.07;1.33;;;11.90;99.90;;;;;;4950499;29;20876;-76
2022/11/23 15:18:30;;;;;;;4.03;1.40;;;11.80;99.90;;;;;;4951110;29;20970;-76
2022/11/23 15:21:00;;;;;;;8.07;3.50;;;11.80;99.90;;;;;;4950944;28;20484;-76
2022/11/23 15:23:34;;;;;;;7.37;3.97;;;11.70;99.90;;;;;;4950821;29;20469;-76
2022/11/23 15:26:04;;;;;;;6.00;2.27;;;11.70;99.90;;;;;;4951256;29;20468;-76
2022/11/23 15:28:33;;;;;;;4.83;2.53;;;11.60;99.90;;;;;;4949852;29;20501;-77
2022/11/23 15:31:00;;;;;;;4.17;1.90;;;11.60;99.90;;;;;;4950725;28;20473;-76
2022/11/23 15:33:28;;;;;;;5.47;1.43;;;11.50;99.90;;;;;;4950366;29;20473;-77
2022/11/23 15:35:55;;;;;;;8.37;2.20;;;11.40;99.90;;;;;;4949660;29;20461;-77
2022/11/23 15:38:22;;;;;;;8.37;1.83;;;11.30;99.90;;;;;;4949749;29;20950;-76
2022/11/23 15:40:50;;;;;;;5.03;1.53;;;11.20;99.90;;;;;;4950520;28;20490;-79
2022/11/23 15:43:19;;;;;;;3.97;1.90;;;11.10;99.90;;;;;;4950429;28;20453;-78
2022/11/23 15:46:11;;;;;;;9.80;2.07;;;11.10;99.90;;;;;;4950785;29;21004;-76
2022/11/23 15:48:38;;;;;;;4.07;1.73;;;11.00;99.90;;;;;;4948440;29;21001;-76
2022/11/23 15:51:07;;;;;;;3.20;2.13;;;10.90;99.90;;;;;;4951020;28;20865;-77
2022/11/23 15:53:46;;;;;;;3.37;2.10;;;10.80;99.90;;;;;;4950194;29;20793;-75
2022/11/23 15:56:21;;;;;;;7.80;4.90;;;10.70;99.90;;;;;;4950958;29;20818;-77
2022/11/23 15:58:50;;;;;;;11.57;5.90;;;10.50;99.90;;;;;;4951108;28;20457;-77
2022/11/23 16:01:17;;;;;;;9.50;7.57;;;10.40;99.90;;;;;;4950389;28;20997;-76
2022/11/23 16:03:51;;;;;;;8.90;4.90;;;10.40;99.90;;;;;;4949433;29;20962;-76
2022/11/23 16:06:38;;;;;;;8.30;4.70;;;10.30;99.90;;;;;;4950789;29;20515;-76
2022/11/23 16:09:33;;;;;;;6.13;3.37;;;10.10;99.90;;;;;;4949630;29;21251;-73
2022/11/23 16:12:01;;;;;;;7.20;3.53;;;9.90;99.90;;;;;;4948358;28;20481;-74
2022/11/23 16:14:29;;;;;;;5.10;3.13;;;9.80;99.90;;;;;;4949583;28;20461;-74
2022/11/23 16:17:01;;;;;;;4.87;3.13;;;9.70;99.90;;;;;;4948201;29;20473;-73
2022/11/23 16:19:30;;;;;;;5.17;2.70;;;9.60;99.90;;;;;;4948651;28;20529;-73
2022/11/23 16:22:01;;;;;;;3.30;2.40;;;9.50;99.90;;;;;;4948472;28;20492;-74
2022/11/23 16:24:28;;;;;;;3.17;2.10;;;9.40;99.90;;;;;;4949254;29;20831;-73
2022/11/23 16:26:55;;;;;;;4.50;1.83;;;9.40;99.90;;;;;;4948865;29;20572;-74
2022/11/23 16:29:26;;;;;;;4.33;2.20;;;9.30;99.90;;;;;;4949281;29;20629;-73
2022/11/23 16:31:58;;;;;;;3.53;2.10;;;9.20;99.90;;;;;;4948363;28;20529;-73
2022/11/23 16:34:27;;;;;;;3.60;2.00;;;9.20;99.90;;;;;;4948964;29;20682;-75
2022/11/23 16:36:54;;;;;;;5.53;2.20;;;9.10;99.90;;;;;;4948719;29;20451;-73
2022/11/23 16:39:21;;;;;;;5.60;2.20;;;9.10;99.90;;;;;;4948783;29;20216;-73
2022/11/23 16:41:48;;;;;;;6.83;3.70;;;9.20;99.90;;;;;;4947837;28;20693;-74
2022/11/23 16:44:15;;;;;;;5.33;3.67;;;9.10;99.90;;;;;;4948539;29;20469;-74
2022/11/23 16:46:45;;;;;;;9.73;6.70;;;9.20;99.90;;;;;;4948715;29;21235;-74
2022/11/23 16:49:15;;;;;;;11.93;7.43;;;9.20;99.90;;;;;;4946679;29;20485;-73
2022/11/23 16:51:42;;;;;;;11.80;5.90;;;9.30;99.90;;;;;;4947987;28;20489;-75
2022/11/23 16:54:09;;;;;;;9.30;6.53;;;9.30;99.90;;;;;;4948657;29;20460;-74
2022/11/23 16:56:36;;;;;;;8.53;5.20;;;9.20;99.90;;;;;;4948415;29;20458;-74
2022/11/23 16:59:03;;;;;;;16.73;9.90;;;9.10;99.90;;;;;;4948051;29;20816;-73
2022/11/23 17:01:31;;;;;;;19.00;11.67;;;9.10;99.90;;;;;;4948138;28;20521;-73
2022/11/23 17:03:59;;;;;;;25.00;16.30;;;9.10;99.90;;;;;;4948032;29;20461;-73
2022/11/23 17:06:29;;;;;;;42.07;23.73;;;9.00;99.90;;;;;;4947568;29;21268;-73
2022/11/23 17:08:57;;;;;;;63.13;30.60;;;9.00;99.90;;;;;;4947739;28;20501;-73
2022/11/23 17:11:26;;;;;;;37.37;21.80;;;8.90;99.90;;;;;;4947633;28;20573;-73
2022/11/23 17:13:55;;;;;;;29.57;15.90;;;9.00;99.90;;;;;;4947282;29;20461;-73
2022/11/23 17:16:23;;;;;;;20.37;10.43;;;9.00;99.90;;;;;;4948121;29;20469;-74
2022/11/23 17:18:50;;;;;;;17.30;12.00;;;9.00;99.90;;;;;;4947767;29;20500;-73
2022/11/23 17:21:18;;;;;;;20.80;12.23;;;9.00;99.90;;;;;;4948131;28;20485;-73
2022/11/23 17:23:45;;;;;;;15.50;10.80;;;9.00;99.90;;;;;;4947002;28;20817;-73
2022/11/23 17:26:32;;;;;;;10.57;8.00;;;9.00;99.90;;;;;;4947894;29;20828;-73
2022/11/23 17:29:02;;;;;;;13.90;8.37;;;9.00;99.90;;;;;;4947441;29;21036;-72
2022/11/23 17:31:29;;;;;;;11.63;7.17;;;9.00;99.90;;;;;;4947521;28;20588;-73
2022/11/23 17:33:56;;;;;;;8.27;6.03;;;9.00;99.90;;;;;;4947332;29;20479;-75
2022/11/23 17:36:24;;;;;;;7.00;4.43;;;9.00;99.90;;;;;;4947858;29;20461;-73
2022/11/23 17:38:51;;;;;;;7.23;4.47;;;9.00;99.90;;;;;;4947884;29;20471;-72
2022/11/23 17:41:18;;;;;;;8.77;3.60;;;9.00;99.90;;;;;;4947495;28;20477;-73
2022/11/23 17:43:45;;;;;;;6.60;4.17;;;8.90;99.90;;;;;;4947127;29;20461;-74
2022/11/23 17:46:17;;;;;;;14.10;4.83;;;8.80;99.90;;;;;;4947675;29;20942;-73
2022/11/23 17:48:44;;;;;;;6.57;3.30;;;8.80;99.90;;;;;;4945963;28;20756;-72
2022/11/23 17:51:12;;;;;;;4.50;2.97;;;8.80;99.90;;;;;;4947488;28;20623;-73
2022/11/23 17:53:40;;;;;;;5.20;3.13;;;8.70;99.90;;;;;;4946835;29;20520;-74
2022/11/23 17:56:16;;;;;;;3.00;2.70;;;8.70;99.90;;;;;;4947397;29;20461;-74
2022/11/23 17:58:43;;;;;;;2.47;1.87;;;8.50;99.90;;;;;;4947757;29;20469;-73
2022/11/23 18:01:13;;;;;;;6.23;2.00;;;8.50;99.90;;;;;;4947424;28;20501;-73
2022/11/23 18:03:40;;;;;;;2.70;2.13;;;8.40;99.90;;;;;;4947071;29;20800;-73
2022/11/23 18:06:12;;;;;;;3.90;2.30;;;8.40;99.90;;;;;;4948412;29;20466;-74
2022/11/23 18:08:41;;;;;;;3.40;2.00;;;8.40;99.90;;;;;;4947570;29;20445;-74
2022/11/23 18:11:08;;;;;;;2.40;1.93;;;8.30;99.90;;;;;;4947321;28;20497;-74
2022/11/23 18:13:35;;;;;;;3.57;2.03;;;8.30;99.90;;;;;;4946810;29;20489;-74
2022/11/23 18:16:02;;;;;;;3.13;2.20;;;8.30;99.90;;;;;;4947039;29;20957;-74